Glasgow, MT

1:10 PM MDT on August 23, 2014 (GMT -0600)
Wokal-Glasgow International | Change Station
CLOSE
Current Station
Airport
Location: Glasgow,
Elevation: 2293 ft
Nearby Weather Stations

Elev 2293 ft 48.21 °N, 106.62 °W | Updated 17 minutes ago

Rain
Rain Mist
54 °F
Feels Like 54 °F
N
24
Wind Variable Wind from ENE
Gusts 32 mph

Today
High -- | Low -- °F
--% Chance of Precip.
Yesterday
High -- | Low -- °F
Precip. -- in
6:11 AM 8:05 PM
Waning Crescent, 3% visible
Pressure 29.99 in
Visibility 4.0 miles
Clouds Few 1400 ft
Mostly Cloudy 4500 ft
Overcast 8500 ft
Dew Point 52 °F
Humidity 93%
Rainfall 1.19 in
Snow Depth Not available.
UV 3 out of 12
Pollen .90 out of 12
Air Quality Not available.
Flu Activity Not available.
METAR KGGW 231853Z AUTO 06021G28KT 4SM RA BR FEW014 BKN045 OVC085 12/11 A2998 RMK AO2 PK WND 07031/1756 SLP154 P0012 T01220111

More Conditions Fewer Conditions

Pressure 29.99 in
Visibility 4.0 miles
Clouds Few 1400 ft
Mostly Cloudy 4500 ft
Overcast 8500 ft
Dew Point 52 °F
Humidity 93%
Rainfall 1.19 in
Snow Depth Not available.
UV 3 out of 12
Pollen .90 out of 12
Air Quality Not available.
Flu Activity Not available.
METAR KGGW 231853Z AUTO 06021G28KT 4SM RA BR FEW014 BKN045 OVC085 12/11 A2998 RMK AO2 PK WND 07031/1756 SLP154 P0012 T01220111

More Conditions Fewer Conditions

10-Day Weather Forecast

Almanac

Astronomy

Aug. 23, 2014 Rise Set
Actual Time 6:11 AM MDT 8:05 PM MDT
Civil Twilight 5:38 AM MDT 8:38 PM MDT
Nautical Twilight 4:57 AM MDT 9:19 PM MDT
Astronomical Twilight 4:11 AM MDT 10:04 PM MDT
Moon 4:27 AM MDT 6:52 PM MDT
Length of Visible Light 14h 59m
Length of Day
13h 53m
Tomorrow will be 3m 17s shorter.
Waning Crescent, 3% of the Moon is Illuminated
Today
Waning Crescent
Aug 25
New
Sep 2
First Quarter
Sep 8
Full
Sep 15
Last Quarter

Today's Extremes

State Highs State Lows

Community

WunderPhotos

Upload Photos

1,746,585 photos uploaded!

WunderBlogs® & News

Nearby

Snow Depth

Station Depth Elevation
Rocky Boy 0 in 4700 ft
Crystal Lake 1 in 6050 ft
Daisy Peak 0 in 7600 ft
Spur Park 0 in 8100 ft
Deadman Creek 0 in 6450 ft

Earthquake Activity

City Distance Mag. Time & Date
No recent earthquake activity has been reported nearby.
Minimum magnitude displayed is 2.5.

Coastal Water Temperatures

Place Temperature
No Stations Reporting

Nearby Weather Stations